Terminal Aerodrome Forecast
Issued by NWS

Home | Current Version | Previous Version | Text Only | Print | Product List | Glossary On
Versions: 1 2 3 4 5 6 7 8 9 10 11 12 13 14 15 16 17 18 19 20 21 22 23 24 25 26
000
FTUS45 KREV 220500
TAFTRK
TAF
KTRK 220522Z 2206/2306 VRB03KT P6SM SKC
     FM221800 21012G25KT P6SM SKC
     FM222100 24015G28KT P6SM SKC
     FM230100 28012KT P6SM SKC
     FM230400 VRB03KT P6SM SKC
      AMD NOT SKED TIL 221200=

USA.gov is the U.S. government's official web portal to all federal, state and local government web resources and services.